Armington, IL

1:33 PM CDT on September 20, 2014 (GMT -0500)
Greater Peoria Regional | Change Station
CLOSE
Current Station
Airport
Location: Peoria,
Elevation: 663 ft
Nearby Weather Stations

Elev 663 ft 40.67 °N, 89.68 °W | Updated 39 minutes ago

Clear
Clear
80 °F
Feels Like 82 °F
N
14
Wind Variable Wind from West

Today
High -- | Low -- °F
--% Chance of Precip.
Yesterday
High -- | Low -- °F
Precip. -- in
6:42 AM 6:57 PM
Waning Crescent, 11% visible
Pressure 29.89 in
Visibility 9.0 miles
Clouds Few 2400 ft
Heat Index 82 °F
Dew Point 67 °F
Humidity 64%
Rainfall 0.00 in
Snow Depth Not available.
UV 7 out of 12
Pollen 5.70 out of 12
Ozone Good
PM2.5 Moderate
Flu Activity Not available.
METAR KPIA 201754Z 26012KT 9SM FEW024 27/19 A2990 RMK AO2 SLP122 T02670194 10267 20161 55009

More Conditions Fewer Conditions

Pressure 29.89 in
Visibility 9.0 miles
Clouds Few 2400 ft
Heat Index 82 °F
Dew Point 67 °F
Humidity 64%
Rainfall 0.00 in
Snow Depth Not available.
UV 7 out of 12
Pollen 5.70 out of 12
Ozone Good
PM2.5 Moderate
Flu Activity Not available.
METAR KPIA 201754Z 26012KT 9SM FEW024 27/19 A2990 RMK AO2 SLP122 T02670194 10267 20161 55009

More Conditions Fewer Conditions

10-Day Weather Forecast

Almanac

Astronomy

Sep. 20, 2014 Rise Set
Actual Time 6:42 AM CDT 6:57 PM CDT
Civil Twilight 6:15 AM CDT 7:24 PM CDT
Nautical Twilight 5:43 AM CDT 7:56 PM CDT
Astronomical Twilight 5:11 AM CDT 8:29 PM CDT
Moon 3:21 AM CDT 5:01 PM CDT
Length of Visible Light 13h 09m
Length of Day
12h 14m
Tomorrow will be 2m 39s shorter.
Waning Crescent, 11% of the Moon is Illuminated
Today
Waning Crescent
Sep 24
New
Oct 1
First Quarter
Oct 8
Full
Oct 15
Last Quarter

Today's Extremes

State Highs State Lows

Community

WunderPhotos

Upload Photos

1,754,921 photos uploaded!

Nearby

Air Quality

  Air Quality AQ Index Pollutant
Yesterday Good
PM2.5
Yesterday Good
OZONE
Current Moderate
PM2.5
Current Good
OZONE
Saturday Moderate
PM2.5
Sunday Good
PM2.5
Monday Good
PM2.5
Tuesday Good
PM2.5

Snow Depth

Station Depth Elevation
No new snow has been reported.

Earthquake Activity

City Distance Mag. Time & Date
No recent earthquake activity has been reported nearby.
Minimum magnitude displayed is 2.5.

Coastal Water Temperatures

Place Temperature
No Stations Reporting

Nearby Weather Stations